createdAt,value
2019-05-01T00:01:05.325Z,15.77
2019-05-01T00:03:46.055Z,14.63
2019-05-01T00:06:17.752Z,14.20
2019-05-01T00:08:47.740Z,14.83
2019-05-01T00:11:17.891Z,14.83
2019-05-01T00:13:47.913Z,14.83
2019-05-01T00:16:18.307Z,15.10
2019-05-01T00:18:48.436Z,15.50
2019-05-01T00:21:18.391Z,14.47
2019-05-01T00:23:48.355Z,15.70
2019-05-01T00:26:19.380Z,15.93
2019-05-01T00:28:49.409Z,14.67
2019-05-01T00:31:19.639Z,14.83
2019-05-01T00:33:49.762Z,14.03
2019-05-01T00:36:19.784Z,13.07
2019-05-01T00:38:49.739Z,13.70
2019-05-01T00:41:19.696Z,13.30
2019-05-01T00:43:49.666Z,13.87
2019-05-01T00:46:20.276Z,14.90
2019-05-01T00:48:50.259Z,14.43
2019-05-01T00:51:20.255Z,13.10
2019-05-01T00:53:50.176Z,15.17
2019-05-01T00:56:21.771Z,13.60
2019-05-01T00:59:09.249Z,14.37
2019-05-01T01:01:52.872Z,15.20
2019-05-01T01:04:22.899Z,14.63
2019-05-01T01:06:52.851Z,14.10
2019-05-01T01:09:22.916Z,15.60
2019-05-01T01:11:52.904Z,16.60
2019-05-01T01:14:22.862Z,14.97
2019-05-01T01:16:52.817Z,15.87
2019-05-01T01:19:22.776Z,16.30
2019-05-01T01:21:53.268Z,15.63
2019-05-01T01:24:23.332Z,16.50
2019-05-01T01:26:53.456Z,15.80
2019-05-01T01:29:23.412Z,19.67
2019-05-01T01:31:53.387Z,18.97
2019-05-01T01:34:23.342Z,18.13
2019-05-01T01:36:53.296Z,18.03
2019-05-01T01:39:23.416Z,18.30
2019-05-01T01:41:53.630Z,17.30
2019-05-01T01:44:37.098Z,18.93
2019-05-01T01:47:07.321Z,15.87
2019-05-01T01:49:37.712Z,17.50
2019-05-01T01:52:07.832Z,19.53
2019-05-01T01:54:37.887Z,17.77
2019-05-01T01:57:08.007Z,18.20
2019-05-01T01:59:38.056Z,18.17
2019-05-01T02:02:12.671Z,18.43
2019-05-01T02:04:50.470Z,17.40
2019-05-01T02:07:20.668Z,17.00
2019-05-01T02:09:50.888Z,18.17
2019-05-01T02:12:21.016Z,18.13
2019-05-01T02:14:50.997Z,18.00
2019-05-01T02:17:22.024Z,17.80
2019-05-01T02:19:52.004Z,17.23
2019-05-01T02:22:21.959Z,17.30
2019-05-01T02:24:51.939Z,16.40
2019-05-01T02:27:23.672Z,17.60
2019-05-01T02:29:55.999Z,17.17
2019-05-01T02:32:28.504Z,17.07
2019-05-01T02:35:00.194Z,17.37
2019-05-01T02:37:32.466Z,18.03
2019-05-01T02:40:05.815Z,17.00
2019-05-01T02:42:39.836Z,17.73
2019-05-01T02:45:10.153Z,17.63
2019-05-01T02:47:43.011Z,17.90
2019-05-01T02:50:13.931Z,20.33
2019-05-01T02:52:44.622Z,18.50
2019-05-01T02:55:22.788Z,18.83
2019-05-01T02:57:53.782Z,21.17
2019-05-01T03:00:23.928Z,19.63
2019-05-01T03:02:54.529Z,19.13
2019-05-01T03:05:24.648Z,21.53
2019-05-01T03:07:54.835Z,19.93
2019-05-01T03:10:24.879Z,21.10
2019-05-01T03:12:56.172Z,20.43
2019-05-01T03:15:29.287Z,20.40
2019-05-01T03:18:10.954Z,30.30
2019-05-01T03:20:48.117Z,38.20
2019-05-01T03:23:28.879Z,39.70
2019-05-01T03:25:59.096Z,42.33
2019-05-01T03:28:29.228Z,42.00
2019-05-01T03:30:59.206Z,43.57
2019-05-01T03:33:29.329Z,46.53
2019-05-01T03:35:59.449Z,50.80
2019-05-01T03:38:30.267Z,50.83
2019-05-01T03:41:01.097Z,49.17
2019-05-01T03:43:31.788Z,49.03
2019-05-01T03:46:01.904Z,51.13
2019-05-01T03:48:33.669Z,47.83
2019-05-01T03:51:04.657Z,48.63
2019-05-01T03:53:35.157Z,48.50
2019-05-01T03:56:05.109Z,50.67
2019-05-01T03:58:35.400Z,49.83
2019-05-01T04:01:10.346Z,49.10
2019-05-01T04:03:48.777Z,49.03
2019-05-01T04:06:20.836Z,49.90
2019-05-01T04:08:50.958Z,49.90
2019-05-01T04:11:21.642Z,50.17
2019-05-01T04:13:51.752Z,52.13
2019-05-01T04:16:22.452Z,51.20
2019-05-01T04:18:52.568Z,53.17
2019-05-01T04:21:24.236Z,54.53
2019-05-01T04:23:54.193Z,52.63
2019-05-01T04:26:24.139Z,51.27
2019-05-01T04:29:01.895Z,50.80
2019-05-01T04:31:36.944Z,49.60
2019-05-01T04:34:08.977Z,51.23
2019-05-01T04:36:40.704Z,51.40
2019-05-01T04:39:10.833Z,49.60
2019-05-01T04:41:41.057Z,56.67
2019-05-01T04:44:11.440Z,55.27
2019-05-01T04:46:41.468Z,50.40
2019-05-01T04:49:11.764Z,56.30
2019-05-01T04:51:42.265Z,58.03
2019-05-01T04:54:12.707Z,60.43
2019-05-01T04:56:43.498Z,60.03
2019-05-01T04:59:13.632Z,60.07
2019-05-01T05:01:51.984Z,62.13
2019-05-01T05:04:24.136Z,61.07
2019-05-01T05:06:54.632Z,60.27
2019-05-01T05:09:39.381Z,61.97
2019-05-01T05:12:11.242Z,61.47
2019-05-01T05:14:46.203Z,60.53
2019-05-01T05:17:20.964Z,63.77
2019-05-01T05:19:51.096Z,60.70
2019-05-01T05:22:21.211Z,56.63
2019-05-01T05:24:52.026Z,57.77
2019-05-01T05:27:24.044Z,59.43
2019-05-01T05:29:57.109Z,52.43
2019-05-01T05:32:28.982Z,52.10
2019-05-01T05:34:59.979Z,52.53
2019-05-01T05:37:35.620Z,49.97
2019-05-01T05:40:06.412Z,49.90
2019-05-01T05:42:37.155Z,51.63
2019-05-01T05:45:07.747Z,53.00
2019-05-01T05:47:38.161Z,53.97
2019-05-01T05:50:09.477Z,53.57
2019-05-01T05:52:47.395Z,56.60
2019-05-01T05:55:35.634Z,57.13
2019-05-01T05:58:09.888Z,56.30
2019-05-01T06:00:55.117Z,59.20
2019-05-01T06:03:47.863Z,59.47
2019-05-01T06:06:44.316Z,62.07
2019-05-01T06:09:16.287Z,57.03
2019-05-01T06:11:48.214Z,58.17
2019-05-01T06:14:38.251Z,55.13
2019-05-01T06:17:12.615Z,57.00
2019-05-01T06:19:49.596Z,54.47
2019-05-01T06:22:20.746Z,57.83
2019-05-01T06:25:04.710Z,56.03
2019-05-01T06:27:35.226Z,56.40
2019-05-01T06:30:11.192Z,57.40
2019-05-01T06:32:40.192Z,58.40
2019-05-01T06:35:11.387Z,55.80
2019-05-01T06:37:55.906Z,57.07
2019-05-01T06:40:41.432Z,55.53
2019-05-01T06:43:20.246Z,55.40
2019-05-01T06:46:10.923Z,53.20
2019-05-01T06:49:00.335Z,54.93
2019-05-01T06:51:35.795Z,55.73
2019-05-01T06:54:16.402Z,54.23
2019-05-01T06:56:48.046Z,50.43
2019-05-01T06:59:18.667Z,54.60
2019-05-01T07:01:53.271Z,49.93
2019-05-01T07:04:21.504Z,51.13
2019-05-01T07:06:51.526Z,51.90
2019-05-01T07:09:28.196Z,51.30
2019-05-01T07:11:54.551Z,49.03
2019-05-01T07:14:25.017Z,48.33
2019-05-01T07:16:55.103Z,49.20
2019-05-01T07:19:26.790Z,48.80
2019-05-01T07:21:56.814Z,51.40
2019-05-01T07:24:27.952Z,51.20
2019-05-01T07:26:59.822Z,48.87
2019-05-01T07:29:32.876Z,44.10
2019-05-01T07:32:06.272Z,45.57
2019-05-01T07:34:35.091Z,45.90
2019-05-01T07:37:05.182Z,45.03
2019-05-01T07:39:35.436Z,44.37
2019-05-01T07:42:23.252Z,43.27
2019-05-01T07:45:10.244Z,44.13
2019-05-01T07:47:42.074Z,43.97
2019-05-01T07:50:14.201Z,46.23
2019-05-01T07:52:47.620Z,43.87
2019-05-01T07:55:18.731Z,44.17
2019-05-01T07:57:50.175Z,44.93
2019-05-01T08:00:41.062Z,43.37
2019-05-01T08:03:08.473Z,44.63
2019-05-01T08:05:40.803Z,43.07
2019-05-01T08:08:09.980Z,45.23
2019-05-01T08:10:40.114Z,45.57
2019-05-01T08:13:10.072Z,46.70
2019-05-01T08:15:40.395Z,44.70
2019-05-01T08:18:12.000Z,43.17
2019-05-01T08:20:45.725Z,46.83
2019-05-01T08:23:15.446Z,45.73
2019-05-01T08:25:45.422Z,44.80
2019-05-01T08:28:19.635Z,44.27
2019-05-01T08:30:52.773Z,43.70
2019-05-01T08:33:29.977Z,43.20
2019-05-01T08:35:59.943Z,41.13
2019-05-01T08:38:34.160Z,41.67
2019-05-01T08:41:02.251Z,40.27
2019-05-01T08:43:32.567Z,38.80
2019-05-01T08:46:04.174Z,38.90
2019-05-01T08:48:41.716Z,35.90
2019-05-01T08:51:11.997Z,37.53
2019-05-01T08:53:41.923Z,37.90
2019-05-01T08:56:17.055Z,38.67
2019-05-01T08:58:44.911Z,38.63
2019-05-01T09:01:16.370Z,36.90
2019-05-01T09:03:49.638Z,38.27
2019-05-01T09:06:18.454Z,37.83
2019-05-01T09:08:48.551Z,38.13
2019-05-01T09:11:18.914Z,37.47
2019-05-01T09:13:49.122Z,36.47
2019-05-01T09:16:23.401Z,39.63
2019-05-01T09:18:52.023Z,39.57
2019-05-01T09:21:22.002Z,40.00
2019-05-01T09:23:53.265Z,40.17
2019-05-01T09:26:35.383Z,40.67
2019-05-01T09:29:11.086Z,39.77
2019-05-01T09:31:40.859Z,43.53
2019-05-01T09:34:14.087Z,42.20
2019-05-01T09:36:42.610Z,44.30
2019-05-01T09:39:14.957Z,41.57
2019-05-01T09:41:47.420Z,43.70
2019-05-01T09:44:16.740Z,42.67
2019-05-01T09:46:46.812Z,43.60
2019-05-01T09:49:18.327Z,39.13
2019-05-01T09:51:59.585Z,40.47
2019-05-01T09:54:42.943Z,38.67
2019-05-01T09:57:12.764Z,37.73
2019-05-01T09:59:45.603Z,36.07
2019-05-01T10:02:15.633Z,37.17
2019-05-01T10:04:47.168Z,38.67
2019-05-01T10:07:17.152Z,39.50
2019-05-01T10:09:52.198Z,39.63
2019-05-01T10:12:21.272Z,41.10
2019-05-01T10:14:51.239Z,42.70
2019-05-01T10:17:21.228Z,42.47
2019-05-01T10:19:51.187Z,39.13
2019-05-01T10:22:21.162Z,42.80
2019-05-01T10:24:52.096Z,40.60
2019-05-01T10:27:23.717Z,39.57
2019-05-01T10:29:56.926Z,39.23
2019-05-01T10:32:31.278Z,36.73
2019-05-01T10:35:21.195Z,36.60
2019-05-01T10:37:51.155Z,34.17
2019-05-01T10:40:22.427Z,33.23
2019-05-01T10:42:52.498Z,34.47
2019-05-01T10:45:22.464Z,35.47
2019-05-01T10:47:52.460Z,35.57
2019-05-01T10:50:22.511Z,35.57
2019-05-01T10:52:52.572Z,36.10
2019-05-01T10:55:22.531Z,34.67
2019-05-01T10:57:52.504Z,35.60
2019-05-01T11:00:22.706Z,35.43
2019-05-01T11:02:52.780Z,35.87
2019-05-01T11:05:22.808Z,35.17
2019-05-01T11:07:52.960Z,34.07
2019-05-01T11:10:22.920Z,37.20
2019-05-01T11:12:52.913Z,35.33
2019-05-01T11:15:22.872Z,37.03
2019-05-01T11:17:52.840Z,32.57
2019-05-01T11:20:22.801Z,33.10
2019-05-01T11:22:53.074Z,35.53
2019-05-01T11:25:23.343Z,31.27
2019-05-01T11:27:53.258Z,31.37
2019-05-01T11:30:23.293Z,32.00
2019-05-01T11:33:01.136Z,32.20
2019-05-01T11:35:37.260Z,31.53
2019-05-01T11:38:26.530Z,30.83
2019-05-01T11:40:59.101Z,33.77
2019-05-01T11:43:29.084Z,31.70
2019-05-01T11:45:59.048Z,31.07
2019-05-01T11:48:30.129Z,29.37
2019-05-01T11:51:00.599Z,31.80
2019-05-01T11:53:30.578Z,27.30
2019-05-01T11:56:00.538Z,26.63
2019-05-01T11:58:30.547Z,26.73
2019-05-01T12:01:02.182Z,23.07
2019-05-01T12:03:32.435Z,21.60
2019-05-01T12:06:02.389Z,22.90
2019-05-01T12:08:32.445Z,20.17
2019-05-01T12:11:03.382Z,23.40
2019-05-01T12:13:43.290Z,22.57
2019-05-01T12:16:06.737Z,22.03
2019-05-01T12:18:36.708Z,22.03
2019-05-01T12:21:06.731Z,22.30
2019-05-01T12:23:36.695Z,25.27
2019-05-01T12:26:06.774Z,24.33
2019-05-01T12:28:36.753Z,24.93
2019-05-01T12:31:06.706Z,25.93
2019-05-01T12:33:36.663Z,27.83
2019-05-01T12:36:07.563Z,28.77
2019-05-01T12:38:37.515Z,28.70
2019-05-01T12:41:21.121Z,30.73
2019-05-01T12:43:51.091Z,29.43
2019-05-01T12:46:34.737Z,29.77
2019-05-01T12:49:04.940Z,30.07
2019-05-01T12:51:35.479Z,32.33
2019-05-01T12:54:13.303Z,32.50
2019-05-01T12:56:51.145Z,29.33
2019-05-01T12:59:21.131Z,26.37
2019-05-01T13:01:51.098Z,27.00
2019-05-01T13:04:21.085Z,29.30
2019-05-01T13:06:54.229Z,26.97
2019-05-01T13:09:24.272Z,29.77
2019-05-01T13:11:54.439Z,32.90
2019-05-01T13:14:24.434Z,32.90
2019-05-01T13:16:54.391Z,33.10
2019-05-01T13:19:24.393Z,34.17
2019-05-01T13:21:54.369Z,33.37
2019-05-01T13:24:24.355Z,33.50
2019-05-01T13:26:58.594Z,32.70
2019-05-01T13:29:31.296Z,32.37
2019-05-01T13:32:05.855Z,31.20
2019-05-01T13:34:35.835Z,31.13
2019-05-01T13:37:05.875Z,30.10
2019-05-01T13:39:35.947Z,29.87
2019-05-01T13:42:08.964Z,28.77
2019-05-01T13:44:38.763Z,27.07
2019-05-01T13:47:08.727Z,26.97
2019-05-01T13:49:38.730Z,29.03
2019-05-01T13:52:08.770Z,28.63
2019-05-01T13:54:38.831Z,29.67
2019-05-01T13:57:08.858Z,29.47
2019-05-01T13:59:38.839Z,29.77
2019-05-01T14:02:08.892Z,31.17
2019-05-01T14:04:39.387Z,30.20
2019-05-01T14:07:16.423Z,30.60
2019-05-01T14:09:40.999Z,32.47
2019-05-01T14:12:12.039Z,32.43
2019-05-01T14:14:41.990Z,30.67
2019-05-01T14:17:12.120Z,32.27
2019-05-01T14:19:43.724Z,30.57
2019-05-01T14:22:27.420Z,31.63
2019-05-01T14:25:02.012Z,31.97
2019-05-01T14:27:32.039Z,33.40
2019-05-01T14:30:02.005Z,31.70
2019-05-01T14:32:33.565Z,31.37
2019-05-01T14:35:05.332Z,31.53
2019-05-01T14:37:35.418Z,32.33
2019-05-01T14:40:07.086Z,30.43
2019-05-01T14:42:37.229Z,29.93
2019-05-01T14:45:09.722Z,30.77
2019-05-01T14:47:39.697Z,30.57
2019-05-01T14:50:09.988Z,30.20
2019-05-01T14:52:39.951Z,31.17
2019-05-01T14:55:10.243Z,29.90
2019-05-01T14:57:40.211Z,29.63
2019-05-01T15:00:10.431Z,29.30
2019-05-01T15:02:40.397Z,29.37
2019-05-01T15:05:10.704Z,29.20
2019-05-01T15:07:43.597Z,28.00
2019-05-01T15:10:12.465Z,27.10
2019-05-01T15:12:44.287Z,28.23
2019-05-01T15:15:24.872Z,27.63
2019-05-01T15:18:05.507Z,29.50
2019-05-01T15:20:35.539Z,27.93
2019-05-01T15:23:05.502Z,29.50
2019-05-01T15:25:35.457Z,28.97
2019-05-01T15:28:05.555Z,28.20
2019-05-01T15:30:35.520Z,28.13
2019-05-01T15:33:05.480Z,26.33
2019-05-01T15:35:35.436Z,26.90
2019-05-01T15:38:05.399Z,26.00
2019-05-01T15:40:53.396Z,23.60
2019-05-01T15:43:25.000Z,22.70
2019-05-01T15:45:54.959Z,21.80
2019-05-01T15:48:24.919Z,21.03
2019-05-01T15:50:54.947Z,20.43
2019-05-01T15:53:24.971Z,21.30
2019-05-01T15:55:54.931Z,20.47
2019-05-01T15:58:24.887Z,19.20
2019-05-01T16:00:54.853Z,20.40
2019-05-01T16:03:24.840Z,20.33
2019-05-01T16:05:54.804Z,21.03
2019-05-01T16:08:24.956Z,19.77
2019-05-01T16:10:59.513Z,20.27
2019-05-01T16:13:29.570Z,20.33
2019-05-01T16:15:59.522Z,20.33
2019-05-01T16:18:29.508Z,20.37
2019-05-01T16:20:59.467Z,19.70
2019-05-01T16:23:29.446Z,19.07
2019-05-01T16:25:59.398Z,20.10
2019-05-01T16:28:29.387Z,19.40
2019-05-01T16:30:59.346Z,18.80
2019-05-01T16:33:29.419Z,18.93
2019-05-01T16:35:59.407Z,19.67
2019-05-01T16:38:47.180Z,19.53
2019-05-01T16:41:17.141Z,17.63
2019-05-01T16:43:47.127Z,17.83
2019-05-01T16:46:17.083Z,18.80
2019-05-01T16:48:47.071Z,18.60
2019-05-01T16:51:17.038Z,18.17
2019-05-01T16:53:47.015Z,18.37
2019-05-01T16:56:17.952Z,17.63
2019-05-01T16:58:48.842Z,17.73
2019-05-01T17:01:20.446Z,17.57
2019-05-01T17:03:52.063Z,17.87
2019-05-01T17:06:32.903Z,17.97
2019-05-01T17:09:22.639Z,17.90
2019-05-01T17:11:52.699Z,17.83
2019-05-01T17:14:22.751Z,17.50
2019-05-01T17:16:52.702Z,17.00
2019-05-01T17:19:22.690Z,16.63
2019-05-01T17:21:52.656Z,16.53
2019-05-01T17:24:22.649Z,16.70
2019-05-01T17:26:52.603Z,15.67
2019-05-01T17:29:22.760Z,17.13
2019-05-01T17:31:52.775Z,17.23
2019-05-01T17:34:25.579Z,16.73
2019-05-01T17:36:54.417Z,16.73
2019-05-01T17:39:24.567Z,17.07
2019-05-01T17:41:57.576Z,17.17
2019-05-01T17:44:26.660Z,17.10
2019-05-01T17:46:56.754Z,17.20
2019-05-01T17:49:26.792Z,16.90
2019-05-01T17:51:56.766Z,17.03
2019-05-01T17:54:26.827Z,17.37
2019-05-01T17:56:56.807Z,16.63
2019-05-01T17:59:26.838Z,16.40
2019-05-01T18:01:58.436Z,16.43
2019-05-01T18:04:33.028Z,16.97
2019-05-01T18:07:03.027Z,14.97
2019-05-01T18:09:34.062Z,15.77
2019-05-01T18:12:04.296Z,15.83
2019-05-01T18:14:34.251Z,15.40
2019-05-01T18:17:04.460Z,15.63
2019-05-01T18:19:34.415Z,15.50
2019-05-01T18:22:06.379Z,15.60
2019-05-01T18:24:40.795Z,15.23
2019-05-01T18:27:28.866Z,15.20
2019-05-01T18:30:00.608Z,15.80
2019-05-01T18:32:32.392Z,15.07
2019-05-01T18:35:02.687Z,15.53
2019-05-01T18:37:37.662Z,15.27
2019-05-01T18:40:11.304Z,15.00
2019-05-01T18:42:41.833Z,15.87
2019-05-01T18:45:20.063Z,15.47
2019-05-01T18:47:47.498Z,15.70
2019-05-01T18:50:17.451Z,14.90
2019-05-01T18:52:47.412Z,15.17
2019-05-01T18:55:17.371Z,15.30
2019-05-01T18:57:47.337Z,15.40
2019-05-01T19:00:17.468Z,15.10
2019-05-01T19:02:47.494Z,15.73
2019-05-01T19:05:17.479Z,16.00
2019-05-01T19:07:47.445Z,16.10
2019-05-01T19:10:17.432Z,16.07
2019-05-01T19:12:47.384Z,16.07
2019-05-01T19:15:18.504Z,15.77
2019-05-01T19:17:48.488Z,16.07
2019-05-01T19:20:18.468Z,17.00
2019-05-01T19:22:48.428Z,17.03
2019-05-01T19:25:18.418Z,16.90
2019-05-01T19:27:48.553Z,17.43
2019-05-01T19:30:19.629Z,16.80
2019-05-01T19:32:49.661Z,17.17
2019-05-01T19:35:23.592Z,17.73
2019-05-01T19:37:52.861Z,16.40
2019-05-01T19:40:25.171Z,17.87
2019-05-01T19:42:58.149Z,17.33
2019-05-01T19:45:26.301Z,17.87
2019-05-01T19:47:56.366Z,17.70
2019-05-01T19:50:26.315Z,17.77
2019-05-01T19:52:56.397Z,17.43
2019-05-01T19:55:26.684Z,17.80
2019-05-01T19:57:56.644Z,17.33
2019-05-01T20:00:49.337Z,17.93
2019-05-01T20:03:21.076Z,18.63
2019-05-01T20:05:51.432Z,18.60
2019-05-01T20:08:21.605Z,17.97
2019-05-01T20:10:51.586Z,18.40
2019-05-01T20:13:21.635Z,19.63
2019-05-01T20:15:51.700Z,20.37
2019-05-01T20:18:22.823Z,19.63
2019-05-01T20:20:52.807Z,20.37
2019-05-01T20:23:26.144Z,19.33
2019-05-01T20:25:55.855Z,19.10
2019-05-01T20:28:26.023Z,19.13
2019-05-01T20:30:56.031Z,18.60
2019-05-01T20:33:25.995Z,18.43
2019-05-01T20:36:00.393Z,19.97
2019-05-01T20:38:27.727Z,19.20
2019-05-01T20:40:57.760Z,20.37
2019-05-01T20:43:27.723Z,21.13
2019-05-01T20:45:57.699Z,19.67
2019-05-01T20:48:27.744Z,19.87
2019-05-01T20:50:57.703Z,21.00
2019-05-01T20:53:27.682Z,21.77
2019-05-01T20:55:59.292Z,21.40
2019-05-01T20:58:29.275Z,20.77
2019-05-01T21:01:00.877Z,22.07
2019-05-01T21:03:31.374Z,20.77
2019-05-01T21:06:21.122Z,20.93
2019-05-01T21:08:55.387Z,21.87
2019-05-01T21:11:29.969Z,20.73
2019-05-01T21:14:15.593Z,20.83
2019-05-01T21:16:32.998Z,21.63
2019-05-01T21:19:04.237Z,21.63
2019-05-01T21:21:34.435Z,21.50
2019-05-01T21:24:04.592Z,22.40
2019-05-01T21:26:34.541Z,22.40
2019-05-01T21:29:04.580Z,22.20
2019-05-01T21:31:34.540Z,21.50
2019-05-01T21:34:04.671Z,21.47
2019-05-01T21:36:34.623Z,21.47
2019-05-01T21:39:06.222Z,22.87
2019-05-01T21:41:36.654Z,21.40
2019-05-01T21:44:06.895Z,23.30
2019-05-01T21:46:39.186Z,22.57
2019-05-01T21:49:08.494Z,21.77
2019-05-01T21:51:42.300Z,23.30
2019-05-01T21:54:10.126Z,23.67
2019-05-01T21:56:41.468Z,22.27
2019-05-01T21:59:11.670Z,23.00
2019-05-01T22:01:41.866Z,23.17
2019-05-01T22:04:11.827Z,23.43
2019-05-01T22:06:41.799Z,24.43
2019-05-01T22:09:15.288Z,24.60
2019-05-01T22:11:45.827Z,24.03
2019-05-01T22:14:36.099Z,24.53
2019-05-01T22:17:07.292Z,24.57
2019-05-01T22:19:37.528Z,25.97
2019-05-01T22:22:09.127Z,24.87
2019-05-01T22:24:43.477Z,25.37
2019-05-01T22:27:33.182Z,25.40
2019-05-01T22:30:12.748Z,27.23
2019-05-01T22:32:44.427Z,25.80
2019-05-01T22:35:22.327Z,26.53
2019-05-01T22:37:52.401Z,25.13
2019-05-01T22:40:24.171Z,25.87
2019-05-01T22:42:54.166Z,24.63
2019-05-01T22:45:25.201Z,24.90
2019-05-01T22:47:55.164Z,25.77
2019-05-01T22:50:25.123Z,25.97
2019-05-01T22:52:55.083Z,25.77
2019-05-01T22:55:25.689Z,25.17
2019-05-01T22:57:56.707Z,25.97
2019-05-01T23:00:29.855Z,26.17
2019-05-01T23:03:05.419Z,26.57
2019-05-01T23:05:33.116Z,25.97
2019-05-01T23:08:03.140Z,25.83
2019-05-01T23:10:33.329Z,27.23
2019-05-01T23:13:05.104Z,27.03
2019-05-01T23:15:35.139Z,27.07
2019-05-01T23:18:05.246Z,27.10
2019-05-01T23:20:39.052Z,26.60
2019-05-01T23:23:06.851Z,25.73
2019-05-01T23:25:41.247Z,27.30
2019-05-01T23:28:08.600Z,26.37
2019-05-01T23:30:38.564Z,27.17
2019-05-01T23:33:08.601Z,28.30
2019-05-01T23:35:38.643Z,27.13
2019-05-01T23:38:08.680Z,27.60
2019-05-01T23:40:38.686Z,27.83
2019-05-01T23:43:08.619Z,27.53
2019-05-01T23:45:38.700Z,28.97
2019-05-01T23:48:08.664Z,28.90
2019-05-01T23:50:38.643Z,29.17
2019-05-01T23:53:09.067Z,30.13
2019-05-01T23:55:40.200Z,29.33
2019-05-01T23:58:10.150Z,29.43
